Cavern City Air Terminal
KCNM : now visible

Aeroporto :











RITROVATECI SU...

 
LOGIN :

Iscrizione | Disclaimer

   EN    FR    IT 

 









Sommario :    VFR   VFR Marginale   IFR   IFR Intensivo   IFR Molto Intensivo
Visibilità : 
Base nubi : 
>= 8 km
>= 3000ft
5 / 8 km
1000 / 3000 ft
1500m / 5 km
500 / 1000 ft
800 / 1500m
200 / 500 ft
< 800m
< 200 ft
Simboli :   Temporali  Nebbia  Neve Forte  Precipitazioni Forti  Vento > 20 kt






- Altitudine del aeroporto : 3295 ft
- Codice IATA : CNM


KCNM - Cavern City Air Terminal

ULTIMO METAR :
  • 130853Z AUTO 17006KT 10SM CLR 23/09 A3015 RMK AO2 SLP146 T02330094 58002

METARs OBSOLETI :
  • 130753Z AUTO 19006KT 10SM CLR 24/09 A3015 RMK AO2 SLP147 T02390089
  • 130653Z AUTO 19007KT 10SM CLR 25/08 A3015 RMK AO2 SLP149 T02500078 403560194
  • 130553Z AUTO 19008KT 10SM CLR 26/08 A3015 RMK AO2 SLP149 T02560078 10344 20250 51015
  • 130453Z AUTO 19005KT 10SM CLR 26/07 A3015 RMK AO2 SLP146 T02610072

TAF KCNM
Valido dal 13 a 06 ore il 14 a 06 ore UTC


130520Z 1306/1406 15006KT P6SM SKC
FM131800 15011KT P6SM FEW100
FIR KZAB / America del Nord



MetMap, La meteo Aeronautica in un colpo d'occhio ! - Copyright ORBIFLY Dicembre 2007 - Disclaimer

ORBIFLY MET'MAP TEAM :

Programmazione e sviluppo : Alexandra Zaïnal
Concezione : Baudouin d'Aumeries
Supporto tecnico e logistico : Manuel Goepfert
Aiuto : Marc-Olivier Méhu
Aiuto per la traduzione : Arnaldo La Scala




FONTI E CREDITI :

   NOAA       Earth
Advisory